Airfield :
LOGIN :

Register | Disclaimer

   EN    FR    IT 

 










Legend :    VFR   Marginal VFR   IFR   Intensive IFR   Very Intensive IFR
Visi :
Ceiling :
>= 8 km
>= 3000ft
5 to 8 km
1000 to 3000 ft
1500m to 5 km
500 to 1000 ft
800 to 1500m
200 to 500 ft
< 800m
< 200 ft
Symbols :   Thunderstorms  Fog  Heavy snow  Heavy precipitations  Wind > 20 kt
SIGMETs :     Misc.  Thunderstorms  Icing  Turbulence  Mountain Waves  Volcanic Ashes







- Airport Elevation : 179 ft


LIPI - Rivolto AFB Udine

CURRENT METAR :
  • 200755Z /////KT 0700 0500NE FG SCT005 BKN010 12/09 Q1020 RMK OVC VIS MIN 0500NE WIND THR06 31002KT WIND THR24 34001KT RED

EXPIRED METARs :
  • 200655Z /////KT 0700 0500NE FG SCT005 BKN010 12/08 Q1019 RMK OVC VIS MIN 0500NE WIND THR06 33003KT WIND THR24 34003KT RED
  • 200555Z /////KT 0600 0400NE FG SCT002 BKN004 11/08 Q1019 RMK OVC VIS MIN 0400NE WIND THR06 06003KT WIND THR24 05002KT RED

TAF TAF LIPI
Valid from the 20 at 09:00 until the 20 at 18:00 UTC


200800Z 2009/2018 VRB03KT 2500 BR FEW005 BKN015
TEMPO 2009/2012 0800 FG SCT005 BKN010
No reported NOTAMs for that airfield.



MET'MAP, your aeronautical weather chart ! - Copyright ORBIFLY December 2007 - Disclaimer

ORBIFLY MET'MAP TEAM :

Programming & Development : Alexandra Zaïnal
Concept & Development : Baudouin d'Aumeries
Co-Development & Prog : Marc-Olivier Méhu
Technical & hardware support : Manuel Goepfert

Contact : metmap@orbifly.com




SOURCES & CREDITS :

   NOAA